Aviation Digital Data Service (ADDS)

Output produced by METARs form (0219 UTC 22 April 2019)
found at http://www.aviationweather.gov/metar/data/
 
METAR text: RKSM 220200Z 15002KT 9000 HZ SKC 22/10 A3002
Conditions at: RKSM (SEOUL EAST(KOR-A, KR) observed 0200 UTC 22 April 2019
Temperature: 22.0°C (72°F)
Dewpoint: 10.0°C (50°F) [RH = 46%]
Pressure (altimeter): 30.02 inches Hg (1016.7 mb)
Winds: from the SSE (150 degrees) at 2 MPH (2 knots; 1.0 m/s)
Visibility: 6 miles ( 9 km)
Ceiling: at least 12,000 feet AGL
Clouds: clear skies
Weather: HZ  (haze)

METAR text: RKSM 220100Z 23003KT 9000 HZ SKC 19/10 A3002
Conditions at: RKSM (SEOUL EAST(KOR-A, KR) observed 0100 UTC 22 April 2019
Temperature: 19.0°C (66°F)
Dewpoint: 10.0°C (50°F) [RH = 56%]
Pressure (altimeter): 30.02 inches Hg (1016.7 mb)
Winds: from the SW (230 degrees) at 3 MPH (3 knots; 1.5 m/s)
Visibility: 6 miles ( 9 km)
Ceiling: at least 12,000 feet AGL
Clouds: clear skies
Weather: HZ  (haze)

METAR text: RKSM 220000Z 05001KT 6000 HZ SKC 17/11 A3002
Conditions at: RKSM (SEOUL EAST(KOR-A, KR) observed 0000 UTC 22 April 2019
Temperature: 17.0°C (63°F)
Dewpoint: 11.0°C (52°F) [RH = 68%]
Pressure (altimeter): 30.02 inches Hg (1016.7 mb)
Winds: from the NE (50 degrees) at 1 MPH (1 knots; 0.5 m/s)
Visibility: 4 miles ( 6 km)
Ceiling: at least 12,000 feet AGL
Clouds: clear skies
Weather: HZ  (haze)

METAR text: RKSM 212300Z 12001KT 6000 BR SKC 14/10 A3002
Conditions at: RKSM (SEOUL EAST(KOR-A, KR) observed 2300 UTC 21 April 2019
Temperature: 14.0°C (57°F)
Dewpoint: 10.0°C (50°F) [RH = 77%]
Pressure (altimeter): 30.02 inches Hg (1016.7 mb)
Winds: from the ESE (120 degrees) at 1 MPH (1 knots; 0.5 m/s)
Visibility: 4 miles ( 6 km)
Ceiling: at least 12,000 feet AGL
Clouds: clear skies
Weather: BR  (mist)

METAR text: RKSM 212100Z 20002KT 6000 BR SKC 09/08 A2999
Conditions at: RKSM (SEOUL EAST(KOR-A, KR) observed 2100 UTC 21 April 2019
Temperature: 9.0°C (48°F)
Dewpoint: 8.0°C (46°F) [RH = 93%]
Pressure (altimeter): 29.99 inches Hg (1015.7 mb)
Winds: from the SSW (200 degrees) at 2 MPH (2 knots; 1.0 m/s)
Visibility: 4 miles ( 6 km)
Ceiling: at least 12,000 feet AGL
Clouds: clear skies
Weather: BR  (mist)

METAR text: RKSM 211900Z 18001KT 8000 BR FEW200 10/09 A2998
Conditions at: RKSM (SEOUL EAST(KOR-A, KR) observed 1900 UTC 21 April 2019
Temperature: 10.0°C (50°F)
Dewpoint: 9.0°C (48°F) [RH = 93%]
Pressure (altimeter): 29.98 inches Hg (1015.3 mb)
Winds: from the S (180 degrees) at 1 MPH (1 knots; 0.5 m/s)
Visibility: 5 miles ( 8 km)
Ceiling: at least 12,000 feet AGL
Clouds: few clouds at 20000 feet AGL
Weather: BR  (mist)

METAR text: RKSM 211800Z 18003KT 8000 BR FEW200 10/09 A2998
Conditions at: RKSM (SEOUL EAST(KOR-A, KR) observed 1800 UTC 21 April 2019
Temperature: 10.0°C (50°F)
Dewpoint: 9.0°C (48°F) [RH = 93%]
Pressure (altimeter): 29.98 inches Hg (1015.3 mb)
Winds: from the S (180 degrees) at 3 MPH (3 knots; 1.5 m/s)
Visibility: 5 miles ( 8 km)
Ceiling: at least 12,000 feet AGL
Clouds: few clouds at 20000 feet AGL
Weather: BR  (mist)

METAR text: RKSM 211700Z 00000KT 9000 BR FEW200 11/09 A2999
Conditions at: RKSM (SEOUL EAST(KOR-A, KR) observed 1700 UTC 21 April 2019
Temperature: 11.0°C (52°F)
Dewpoint: 9.0°C (48°F) [RH = 87%]
Pressure (altimeter): 29.99 inches Hg (1015.7 mb)
Winds: calm
Visibility: 6 miles ( 9 km)
Ceiling: at least 12,000 feet AGL
Clouds: few clouds at 20000 feet AGL
Weather: BR  (mist)

METAR text: RKSM 211600Z 04002KT 9999 BKN200 12/09 A2998
Conditions at: RKSM (SEOUL EAST(KOR-A, KR) observed 1600 UTC 21 April 2019
Temperature: 12.0°C (54°F)
Dewpoint: 9.0°C (48°F) [RH = 82%]
Pressure (altimeter): 29.98 inches Hg (1015.3 mb)
Winds: from the NE (40 degrees) at 2 MPH (2 knots; 1.0 m/s)
Visibility: 6 or more miles (10+ km)
Ceiling: 20000 feet AGL
Clouds: broken clouds at 20000 feet AGL
Weather: no significant weather observed at this time

METAR text: RKSM 211500Z 02001KT 9999 BKN200 12/09 A2998
Conditions at: RKSM (SEOUL EAST(KOR-A, KR) observed 1500 UTC 21 April 2019
Temperature: 12.0°C (54°F)
Dewpoint: 9.0°C (48°F) [RH = 82%]
Pressure (altimeter): 29.98 inches Hg (1015.3 mb)
Winds: from the NNE (20 degrees) at 1 MPH (1 knots; 0.5 m/s)
Visibility: 6 or more miles (10+ km)
Ceiling: 20000 feet AGL
Clouds: broken clouds at 20000 feet AGL
Weather: no significant weather observed at this time

METAR text: RKSM 211400Z 26001KT 9999 BKN200 13/10 A2997
Conditions at: RKSM (SEOUL EAST(KOR-A, KR) observed 1400 UTC 21 April 2019
Temperature: 13.0°C (55°F)
Dewpoint: 10.0°C (50°F) [RH = 82%]
Pressure (altimeter): 29.97 inches Hg (1015.0 mb)
Winds: from the W (260 degrees) at 1 MPH (1 knots; 0.5 m/s)
Visibility: 6 or more miles (10+ km)
Ceiling: 20000 feet AGL
Clouds: broken clouds at 20000 feet AGL
Weather: no significant weather observed at this time

METAR text: RKSM 211300Z 01003KT 9999 BKN200 14/10 A2996
Conditions at: RKSM (SEOUL EAST(KOR-A, KR) observed 1300 UTC 21 April 2019
Temperature: 14.0°C (57°F)
Dewpoint: 10.0°C (50°F) [RH = 77%]
Pressure (altimeter): 29.96 inches Hg (1014.6 mb)
Winds: from the N (10 degrees) at 3 MPH (3 knots; 1.5 m/s)
Visibility: 6 or more miles (10+ km)
Ceiling: 20000 feet AGL
Clouds: broken clouds at 20000 feet AGL
Weather: no significant weather observed at this time

METAR text: RKSM 211200Z 31003KT 9999 BKN200 15/10 A2995
Conditions at: RKSM (SEOUL EAST(KOR-A, KR) observed 1200 UTC 21 April 2019
Temperature: 15.0°C (59°F)
Dewpoint: 10.0°C (50°F) [RH = 72%]
Pressure (altimeter): 29.95 inches Hg (1014.3 mb)
Winds: from the NW (310 degrees) at 3 MPH (3 knots; 1.5 m/s)
Visibility: 6 or more miles (10+ km)
Ceiling: 20000 feet AGL
Clouds: broken clouds at 20000 feet AGL
Weather: no significant weather observed at this time

METAR text: RKSM 211100Z 00000KT 9999 BKN200 16/11 A2992
Conditions at: RKSM (SEOUL EAST(KOR-A, KR) observed 1100 UTC 21 April 2019
Temperature: 16.0°C (61°F)
Dewpoint: 11.0°C (52°F) [RH = 72%]
Pressure (altimeter): 29.92 inches Hg (1013.3 mb)
Winds: calm
Visibility: 6 or more miles (10+ km)
Ceiling: 20000 feet AGL
Clouds: broken clouds at 20000 feet AGL
Weather: no significant weather observed at this time

METAR text: RKSM 211000Z 27005KT 9999 BKN200 18/11 A2991
Conditions at: RKSM (SEOUL EAST(KOR-A, KR) observed 1000 UTC 21 April 2019
Temperature: 18.0°C (64°F)
Dewpoint: 11.0°C (52°F) [RH = 64%]
Pressure (altimeter): 29.91 inches Hg (1013.0 mb)
Winds: from the W (270 degrees) at 6 MPH (5 knots; 2.6 m/s)
Visibility: 6 or more miles (10+ km)
Ceiling: 20000 feet AGL
Clouds: broken clouds at 20000 feet AGL
Weather: no significant weather observed at this time

METAR text: RKSM 210900Z 30005KT 9999 BKN200 20/12 A2990
Conditions at: RKSM (SEOUL EAST(KOR-A, KR) observed 0900 UTC 21 April 2019
Temperature: 20.0°C (68°F)
Dewpoint: 12.0°C (54°F) [RH = 60%]
Pressure (altimeter): 29.90 inches Hg (1012.6 mb)
Winds: from the WNW (300 degrees) at 6 MPH (5 knots; 2.6 m/s)
Visibility: 6 or more miles (10+ km)
Ceiling: 20000 feet AGL
Clouds: broken clouds at 20000 feet AGL
Weather: no significant weather observed at this time

METAR text: RKSM 210800Z 22005KT 9999 BKN200 20/12 A2989
Conditions at: RKSM (SEOUL EAST(KOR-A, KR) observed 0800 UTC 21 April 2019
Temperature: 20.0°C (68°F)
Dewpoint: 12.0°C (54°F) [RH = 60%]
Pressure (altimeter): 29.89 inches Hg (1012.3 mb)
Winds: from the SW (220 degrees) at 6 MPH (5 knots; 2.6 m/s)
Visibility: 6 or more miles (10+ km)
Ceiling: 20000 feet AGL
Clouds: broken clouds at 20000 feet AGL
Weather: no significant weather observed at this time

METAR text: RKSM 210700Z 18006KT 9999 FEW030 BKN200 21/12 A2989
Conditions at: RKSM (SEOUL EAST(KOR-A, KR) observed 0700 UTC 21 April 2019
Temperature: 21.0°C (70°F)
Dewpoint: 12.0°C (54°F) [RH = 56%]
Pressure (altimeter): 29.89 inches Hg (1012.3 mb)
Winds: from the S (180 degrees) at 7 MPH (6 knots; 3.1 m/s)
Visibility: 6 or more miles (10+ km)
Ceiling: 20000 feet AGL
Clouds: few clouds at 3000 feet AGL
broken clouds at 20000 feet AGL
Weather: no significant weather observed at this time

METAR text: RKSM 210600Z 07002KT 9999 FEW025 SCT100 BKN200 20/12 A2991
Conditions at: RKSM (SEOUL EAST(KOR-A, KR) observed 0600 UTC 21 April 2019
Temperature: 20.0°C (68°F)
Dewpoint: 12.0°C (54°F) [RH = 60%]
Pressure (altimeter): 29.91 inches Hg (1013.0 mb)
Winds: from the ENE (70 degrees) at 2 MPH (2 knots; 1.0 m/s)
Visibility: 6 or more miles (10+ km)
Ceiling: 20000 feet AGL
Clouds: few clouds at 2500 feet AGL
scattered clouds at 10000 feet AGL
broken clouds at 20000 feet AGL
Weather: no significant weather observed at this time

METAR text: RKSM 210500Z 33004KT 9000 BR BKN025 BKN090 18/12 A2993
Conditions at: RKSM (SEOUL EAST(KOR-A, KR) observed 0500 UTC 21 April 2019
Temperature: 18.0°C (64°F)
Dewpoint: 12.0°C (54°F) [RH = 68%]
Pressure (altimeter): 29.93 inches Hg (1013.6 mb)
Winds: from the NNW (330 degrees) at 5 MPH (4 knots; 2.1 m/s)
Visibility: 6 miles ( 9 km)
Ceiling: 2500 feet AGL
Clouds: broken clouds at 2500 feet AGL
broken clouds at 9000 feet AGL
Weather: BR  (mist)

METAR text: RKSM 210400Z 35004KT 9000 BR SCT015 OVC025 17/12 A2993
Conditions at: RKSM (SEOUL EAST(KOR-A, KR) observed 0400 UTC 21 April 2019
Temperature: 17.0°C (63°F)
Dewpoint: 12.0°C (54°F) [RH = 72%]
Pressure (altimeter): 29.93 inches Hg (1013.6 mb)
Winds: from the N (350 degrees) at 5 MPH (4 knots; 2.1 m/s)
Visibility: 6 miles ( 9 km)
Ceiling: 2500 feet AGL
Clouds: scattered clouds at 1500 feet AGL
overcast cloud deck at 2500 feet AGL
Weather: BR  (mist)

METAR text: RKSM 210300Z 31004KT 9000 BR SCT015 OVC025 16/11 A2995
Conditions at: RKSM (SEOUL EAST(KOR-A, KR) observed 0300 UTC 21 April 2019
Temperature: 16.0°C (61°F)
Dewpoint: 11.0°C (52°F) [RH = 72%]
Pressure (altimeter): 29.95 inches Hg (1014.3 mb)
Winds: from the NW (310 degrees) at 5 MPH (4 knots; 2.1 m/s)
Visibility: 6 miles ( 9 km)
Ceiling: 2500 feet AGL
Clouds: scattered clouds at 1500 feet AGL
overcast cloud deck at 2500 feet AGL
Weather: BR  (mist)

METAR text: RKSM 210200Z 29004KT 9000 BR SCT015 OVC025 16/12 A2996
Conditions at: RKSM (SEOUL EAST(KOR-A, KR) observed 0200 UTC 21 April 2019
Temperature: 16.0°C (61°F)
Dewpoint: 12.0°C (54°F) [RH = 77%]
Pressure (altimeter): 29.96 inches Hg (1014.6 mb)
Winds: from the WNW (290 degrees) at 5 MPH (4 knots; 2.1 m/s)
Visibility: 6 miles ( 9 km)
Ceiling: 2500 feet AGL
Clouds: scattered clouds at 1500 feet AGL
overcast cloud deck at 2500 feet AGL
Weather: BR  (mist)

METAR text: RKSM 210100Z 04001KT 8000 BR BKN015 OVC025 15/13 A2995
Conditions at: RKSM (SEOUL EAST(KOR-A, KR) observed 0100 UTC 21 April 2019
Temperature: 15.0°C (59°F)
Dewpoint: 13.0°C (55°F) [RH = 88%]
Pressure (altimeter): 29.95 inches Hg (1014.3 mb)
Winds: from the NE (40 degrees) at 1 MPH (1 knots; 0.5 m/s)
Visibility: 5 miles ( 8 km)
Ceiling: 1500 feet AGL
Clouds: broken clouds at 1500 feet AGL
overcast cloud deck at 2500 feet AGL
Weather: BR  (mist)

METAR text: RKSM 210000Z 00000KT 6000 BR BKN010 OVC025 15/12 A2994
Conditions at: RKSM (SEOUL EAST(KOR-A, KR) observed 0000 UTC 21 April 2019
Temperature: 15.0°C (59°F)
Dewpoint: 12.0°C (54°F) [RH = 82%]
Pressure (altimeter): 29.94 inches Hg (1014.0 mb)
Winds: calm
Visibility: 4 miles ( 6 km)
Ceiling: 1000 feet AGL
Clouds: broken clouds at 1000 feet AGL
overcast cloud deck at 2500 feet AGL
Weather: BR  (mist)

METAR text: RKSM 202300Z 20003KT 4800 BR BKN010 OVC025 14/12 A2993
Conditions at: RKSM (SEOUL EAST(KOR-A, KR) observed 2300 UTC 20 April 2019
Temperature: 14.0°C (57°F)
Dewpoint: 12.0°C (54°F) [RH = 88%]
Pressure (altimeter): 29.93 inches Hg (1013.6 mb)
Winds: from the SSW (200 degrees) at 3 MPH (3 knots; 1.5 m/s)
Visibility: 2.98 miles (4.80 km)
Ceiling: 1000 feet AGL
Clouds: broken clouds at 1000 feet AGL
overcast cloud deck at 2500 feet AGL
Weather: BR  (mist)

METAR text: RKSM 202200Z 21003KT 4800 BR BKN010 OVC025 13/12 A2992
Conditions at: RKSM (SEOUL EAST(KOR-A, KR) observed 2200 UTC 20 April 2019
Temperature: 13.0°C (55°F)
Dewpoint: 12.0°C (54°F) [RH = 94%]
Pressure (altimeter): 29.92 inches Hg (1013.3 mb)
Winds: from the SSW (210 degrees) at 3 MPH (3 knots; 1.5 m/s)
Visibility: 2.98 miles (4.80 km)
Ceiling: 1000 feet AGL
Clouds: broken clouds at 1000 feet AGL
overcast cloud deck at 2500 feet AGL
Weather: BR  (mist)

METAR text: RKSM 202100Z 35001KT 4800 BR BKN010 OVC025 13/12 A2993
Conditions at: RKSM (SEOUL EAST(KOR-A, KR) observed 2100 UTC 20 April 2019
Temperature: 13.0°C (55°F)
Dewpoint: 12.0°C (54°F) [RH = 94%]
Pressure (altimeter): 29.93 inches Hg (1013.6 mb)
Winds: from the N (350 degrees) at 1 MPH (1 knots; 0.5 m/s)
Visibility: 2.98 miles (4.80 km)
Ceiling: 1000 feet AGL
Clouds: broken clouds at 1000 feet AGL
overcast cloud deck at 2500 feet AGL
Weather: BR  (mist)

METAR text: RKSM 202000Z 29002KT 4800 BR BKN010 OVC025 13/12 A2992
Conditions at: RKSM (SEOUL EAST(KOR-A, KR) observed 2000 UTC 20 April 2019
Temperature: 13.0°C (55°F)
Dewpoint: 12.0°C (54°F) [RH = 94%]
Pressure (altimeter): 29.92 inches Hg (1013.3 mb)
Winds: from the WNW (290 degrees) at 2 MPH (2 knots; 1.0 m/s)
Visibility: 2.98 miles (4.80 km)
Ceiling: 1000 feet AGL
Clouds: broken clouds at 1000 feet AGL
overcast cloud deck at 2500 feet AGL
Weather: BR  (mist)

METAR text: RKSM 201900Z 23002KT 4800 BR BKN010 OVC025 14/12 A2992
Conditions at: RKSM (SEOUL EAST(KOR-A, KR) observed 1900 UTC 20 April 2019
Temperature: 14.0°C (57°F)
Dewpoint: 12.0°C (54°F) [RH = 88%]
Pressure (altimeter): 29.92 inches Hg (1013.3 mb)
Winds: from the SW (230 degrees) at 2 MPH (2 knots; 1.0 m/s)
Visibility: 2.98 miles (4.80 km)
Ceiling: 1000 feet AGL
Clouds: broken clouds at 1000 feet AGL
overcast cloud deck at 2500 feet AGL
Weather: BR  (mist)

METAR text: RKSM 201800Z 24001KT 4800 BR BKN010 OVC025 14/12 A2992
Conditions at: RKSM (SEOUL EAST(KOR-A, KR) observed 1800 UTC 20 April 2019
Temperature: 14.0°C (57°F)
Dewpoint: 12.0°C (54°F) [RH = 88%]
Pressure (altimeter): 29.92 inches Hg (1013.3 mb)
Winds: from the WSW (240 degrees) at 1 MPH (1 knots; 0.5 m/s)
Visibility: 2.98 miles (4.80 km)
Ceiling: 1000 feet AGL
Clouds: broken clouds at 1000 feet AGL
overcast cloud deck at 2500 feet AGL
Weather: BR  (mist)

METAR text: RKSM 201700Z 22004KT 4800 -RA BR BKN010 OVC025 14/13 A2993
Conditions at: RKSM (SEOUL EAST(KOR-A, KR) observed 1700 UTC 20 April 2019
Temperature: 14.0°C (57°F)
Dewpoint: 13.0°C (55°F) [RH = 94%]
Pressure (altimeter): 29.93 inches Hg (1013.6 mb)
Winds: from the SW (220 degrees) at 5 MPH (4 knots; 2.1 m/s)
Visibility: 2.98 miles (4.80 km)
Ceiling: 1000 feet AGL
Clouds: broken clouds at 1000 feet AGL
overcast cloud deck at 2500 feet AGL
Weather: -RA BR  (light rain, mist)

METAR text: RKSM 201600Z 18002KT 4800 -RA BR BKN010 OVC025 14/13 A2994
Conditions at: RKSM (SEOUL EAST(KOR-A, KR) observed 1600 UTC 20 April 2019
Temperature: 14.0°C (57°F)
Dewpoint: 13.0°C (55°F) [RH = 94%]
Pressure (altimeter): 29.94 inches Hg (1014.0 mb)
Winds: from the S (180 degrees) at 2 MPH (2 knots; 1.0 m/s)
Visibility: 2.98 miles (4.80 km)
Ceiling: 1000 feet AGL
Clouds: broken clouds at 1000 feet AGL
overcast cloud deck at 2500 feet AGL
Weather: -RA BR  (light rain, mist)

METAR text: RKSM 201500Z 35002KT 4800 -RA BR BKN010 OVC025 14/13 A2995
Conditions at: RKSM (SEOUL EAST(KOR-A, KR) observed 1500 UTC 20 April 2019
Temperature: 14.0°C (57°F)
Dewpoint: 13.0°C (55°F) [RH = 94%]
Pressure (altimeter): 29.95 inches Hg (1014.3 mb)
Winds: from the N (350 degrees) at 2 MPH (2 knots; 1.0 m/s)
Visibility: 2.98 miles (4.80 km)
Ceiling: 1000 feet AGL
Clouds: broken clouds at 1000 feet AGL
overcast cloud deck at 2500 feet AGL
Weather: -RA BR  (light rain, mist)

Forecast for: RKSM (SEOUL EAST(KOR-A, KR)
Text: TAF RKSM 212300Z 2200/2306 15006KT 6000 BR SCT200 VIS 9999 NSW AFT 2203 TX28/2206Z TN12/2221Z
Forecast period: 0000 UTC 22 April 2019 to 0600 UTC 23 April 2019
Forecast type: FROM: standard forecast or significant change
Winds: from the SSE (150 degrees) at 7 MPH (6 knots; 3.1 m/s)
Visibility: 6 or more miles 10+ km)
Ceiling: at least 12,000 feet AGL
Clouds: scattered clouds at 20000 feet AGL
Weather: NSWBR  (unknown weather)